sensor_id;sensor_type;location;lat;lon;timestamp;temperature;humidity
12287;DHT22;6206;53.100;11.098;2022-07-29T00:01:19;13.90;99.90
12287;DHT22;6206;53.100;11.098;2022-07-29T00:03:46;13.80;99.90
12287;DHT22;6206;53.100;11.098;2022-07-29T00:06:13;13.80;99.90
12287;DHT22;6206;53.100;11.098;2022-07-29T00:08:40;13.90;99.90
12287;DHT22;6206;53.100;11.098;2022-07-29T00:11:08;17.50;99.90
12287;DHT22;6206;53.100;11.098;2022-07-29T00:13:34;13.80;99.90
12287;DHT22;6206;53.100;11.098;2022-07-29T00:16:01;13.70;99.90
12287;DHT22;6206;53.100;11.098;2022-07-29T00:18:27;13.60;99.90
12287;DHT22;6206;53.100;11.098;2022-07-29T00:20:54;13.50;99.90
12287;DHT22;6206;53.100;11.098;2022-07-29T00:23:20;13.50;99.90
12287;DHT22;6206;53.100;11.098;2022-07-29T00:25:47;13.40;99.90
12287;DHT22;6206;53.100;11.098;2022-07-29T00:28:15;13.20;99.90
12287;DHT22;6206;53.100;11.098;2022-07-29T00:30:41;13.20;99.90
12287;DHT22;6206;53.100;11.098;2022-07-29T00:33:08;13.20;99.90
12287;DHT22;6206;53.100;11.098;2022-07-29T00:35:34;13.30;99.90
12287;DHT22;6206;53.100;11.098;2022-07-29T00:38:09;13.30;99.90
12287;DHT22;6206;53.100;11.098;2022-07-29T00:40:36;13.20;99.90
12287;DHT22;6206;53.100;11.098;2022-07-29T00:43:02;13.10;99.90
12287;DHT22;6206;53.100;11.098;2022-07-29T00:45:31;13.00;99.90
12287;DHT22;6206;53.100;11.098;2022-07-29T00:47:57;13.00;99.90
12287;DHT22;6206;53.100;11.098;2022-07-29T00:50:24;13.10;99.90
12287;DHT22;6206;53.100;11.098;2022-07-29T00:52:52;13.20;99.90
12287;DHT22;6206;53.100;11.098;2022-07-29T00:55:19;13.10;99.90
12287;DHT22;6206;53.100;11.098;2022-07-29T00:57:46;13.10;99.90
12287;DHT22;6206;53.100;11.098;2022-07-29T01:00:16;13.10;99.90
12287;DHT22;6206;53.100;11.098;2022-07-29T01:02:45;13.20;99.90
12287;DHT22;6206;53.100;11.098;2022-07-29T01:05:13;13.20;99.90
12287;DHT22;6206;53.100;11.098;2022-07-29T01:07:41;13.20;99.90
12287;DHT22;6206;53.100;11.098;2022-07-29T01:10:09;13.20;99.90
12287;DHT22;6206;53.100;11.098;2022-07-29T01:12:39;13.20;99.90
12287;DHT22;6206;53.100;11.098;2022-07-29T01:15:07;13.20;99.90
12287;DHT22;6206;53.100;11.098;2022-07-29T01:17:38;13.20;99.90
12287;DHT22;6206;53.100;11.098;2022-07-29T01:20:14;13.20;99.90
12287;DHT22;6206;53.100;11.098;2022-07-29T01:23:01;17.40;99.90
12287;DHT22;6206;53.100;11.098;2022-07-29T01:28:39;12.90;99.90
12287;DHT22;6206;53.100;11.098;2022-07-29T01:31:11;13.00;99.90
12287;DHT22;6206;53.100;11.098;2022-07-29T01:33:41;13.10;99.90
12287;DHT22;6206;53.100;11.098;2022-07-29T01:36:18;13.10;99.90
12287;DHT22;6206;53.100;11.098;2022-07-29T01:38:54;13.10;99.90
12287;DHT22;6206;53.100;11.098;2022-07-29T01:41:21;13.20;99.90
12287;DHT22;6206;53.100;11.098;2022-07-29T01:43:54;13.10;99.90
12287;DHT22;6206;53.100;11.098;2022-07-29T01:46:27;13.00;99.90
12287;DHT22;6206;53.100;11.098;2022-07-29T01:48:59;12.90;99.90
12287;DHT22;6206;53.100;11.098;2022-07-29T01:51:31;12.90;99.90
12287;DHT22;6206;53.100;11.098;2022-07-29T01:54:06;12.90;99.90
12287;DHT22;6206;53.100;11.098;2022-07-29T01:56:35;12.90;99.90
12287;DHT22;6206;53.100;11.098;2022-07-29T01:59:07;12.80;99.90
12287;DHT22;6206;53.100;11.098;2022-07-29T02:01:35;12.70;99.90
12287;DHT22;6206;53.100;11.098;2022-07-29T02:04:03;12.90;99.90
12287;DHT22;6206;53.100;11.098;2022-07-29T02:06:33;13.00;99.90
12287;DHT22;6206;53.100;11.098;2022-07-29T02:09:02;12.70;99.90
12287;DHT22;6206;53.100;11.098;2022-07-29T02:11:31;12.80;99.90
12287;DHT22;6206;53.100;11.098;2022-07-29T02:14:00;12.80;99.90
12287;DHT22;6206;53.100;11.098;2022-07-29T02:16:31;12.80;99.90
12287;DHT22;6206;53.100;11.098;2022-07-29T02:19:00;12.90;99.90
12287;DHT22;6206;53.100;11.098;2022-07-29T02:21:28;16.40;99.90
12287;DHT22;6206;53.100;11.098;2022-07-29T02:23:58;12.70;99.90
12287;DHT22;6206;53.100;11.098;2022-07-29T02:26:27;12.70;99.90
12287;DHT22;6206;53.100;11.098;2022-07-29T02:28:56;12.70;99.90
12287;DHT22;6206;53.100;11.098;2022-07-29T02:31:27;12.70;99.90
12287;DHT22;6206;53.100;11.098;2022-07-29T02:33:57;12.70;99.90
12287;DHT22;6206;53.100;11.098;2022-07-29T02:36:26;12.70;99.90
12287;DHT22;6206;53.100;11.098;2022-07-29T02:38:55;13.20;99.90
12287;DHT22;6206;53.100;11.098;2022-07-29T02:41:26;12.80;99.90
12287;DHT22;6206;53.100;11.098;2022-07-29T02:43:56;12.80;99.90
12287;DHT22;6206;53.100;11.098;2022-07-29T02:46:27;12.80;99.90
12287;DHT22;6206;53.100;11.098;2022-07-29T02:48:59;12.80;99.90
12287;DHT22;6206;53.100;11.098;2022-07-29T02:51:32;12.80;99.90
12287;DHT22;6206;53.100;11.098;2022-07-29T02:54:01;12.90;99.90
12287;DHT22;6206;53.100;11.098;2022-07-29T02:56:33;12.80;99.90
12287;DHT22;6206;53.100;11.098;2022-07-29T02:59:06;12.70;99.90
12287;DHT22;6206;53.100;11.098;2022-07-29T03:01:35;12.70;99.90
12287;DHT22;6206;53.100;11.098;2022-07-29T03:04:05;12.70;99.90
12287;DHT22;6206;53.100;11.098;2022-07-29T03:06:33;12.70;99.90
12287;DHT22;6206;53.100;11.098;2022-07-29T03:09:00;12.60;99.90
12287;DHT22;6206;53.100;11.098;2022-07-29T03:11:27;12.60;99.90
12287;DHT22;6206;53.100;11.098;2022-07-29T03:13:54;12.60;99.90
12287;DHT22;6206;53.100;11.098;2022-07-29T03:16:21;12.70;99.90
12287;DHT22;6206;53.100;11.098;2022-07-29T03:18:49;12.60;99.90
12287;DHT22;6206;53.100;11.098;2022-07-29T03:21:18;12.60;99.90
12287;DHT22;6206;53.100;11.098;2022-07-29T03:23:45;12.60;99.90
12287;DHT22;6206;53.100;11.098;2022-07-29T03:26:12;12.70;99.90
12287;DHT22;6206;53.100;11.098;2022-07-29T03:28:39;12.50;99.90
12287;DHT22;6206;53.100;11.098;2022-07-29T03:31:05;12.50;99.90
12287;DHT22;6206;53.100;11.098;2022-07-29T03:33:32;12.50;99.90
12287;DHT22;6206;53.100;11.098;2022-07-29T03:35:58;12.60;99.90
12287;DHT22;6206;53.100;11.098;2022-07-29T03:38:30;12.50;99.90
12287;DHT22;6206;53.100;11.098;2022-07-29T03:41:03;12.50;99.90
12287;DHT22;6206;53.100;11.098;2022-07-29T03:43:35;12.50;99.90
12287;DHT22;6206;53.100;11.098;2022-07-29T03:46:04;12.60;99.90
12287;DHT22;6206;53.100;11.098;2022-07-29T03:48:34;12.60;99.90
12287;DHT22;6206;53.100;11.098;2022-07-29T03:51:03;12.70;99.90
12287;DHT22;6206;53.100;11.098;2022-07-29T03:53:31;12.60;99.90
12287;DHT22;6206;53.100;11.098;2022-07-29T03:56:02;12.60;99.90
12287;DHT22;6206;53.100;11.098;2022-07-29T03:58:30;12.60;99.90
12287;DHT22;6206;53.100;11.098;2022-07-29T04:00:58;12.70;99.90
12287;DHT22;6206;53.100;11.098;2022-07-29T04:03:25;12.70;99.90
12287;DHT22;6206;53.100;11.098;2022-07-29T04:05:59;12.70;99.90
12287;DHT22;6206;53.100;11.098;2022-07-29T04:08:26;13.20;99.90
12287;DHT22;6206;53.100;11.098;2022-07-29T04:10:54;12.40;99.90
12287;DHT22;6206;53.100;11.098;2022-07-29T04:13:21;12.70;99.90
12287;DHT22;6206;53.100;11.098;2022-07-29T04:15:48;12.80;99.90
12287;DHT22;6206;53.100;11.098;2022-07-29T04:18:14;12.90;99.90
12287;DHT22;6206;53.100;11.098;2022-07-29T04:20:41;12.90;99.90
12287;DHT22;6206;53.100;11.098;2022-07-29T04:23:08;12.80;99.90
12287;DHT22;6206;53.100;11.098;2022-07-29T04:25:37;12.90;99.90
12287;DHT22;6206;53.100;11.098;2022-07-29T04:28:06;12.90;99.90
12287;DHT22;6206;53.100;11.098;2022-07-29T04:30:33;12.90;99.90
12287;DHT22;6206;53.100;11.098;2022-07-29T04:33:01;12.90;99.90
12287;DHT22;6206;53.100;11.098;2022-07-29T04:35:29;12.90;99.90
12287;DHT22;6206;53.100;11.098;2022-07-29T04:37:56;14.40;99.90
12287;DHT22;6206;53.100;11.098;2022-07-29T04:40:22;13.00;99.90
12287;DHT22;6206;53.100;11.098;2022-07-29T04:42:49;13.10;99.90
12287;DHT22;6206;53.100;11.098;2022-07-29T04:45:17;13.10;99.90
12287;DHT22;6206;53.100;11.098;2022-07-29T04:47:44;13.10;99.90
12287;DHT22;6206;53.100;11.098;2022-07-29T04:50:11;15.60;99.90
12287;DHT22;6206;53.100;11.098;2022-07-29T04:52:37;13.20;99.90
12287;DHT22;6206;53.100;11.098;2022-07-29T04:55:05;17.20;99.90
12287;DHT22;6206;53.100;11.098;2022-07-29T04:57:32;13.30;99.90
12287;DHT22;6206;53.100;11.098;2022-07-29T04:59:59;13.30;99.90
12287;DHT22;6206;53.100;11.098;2022-07-29T05:02:27;13.40;99.90
12287;DHT22;6206;53.100;11.098;2022-07-29T05:04:54;13.40;99.90
12287;DHT22;6206;53.100;11.098;2022-07-29T05:07:20;13.40;99.90
12287;DHT22;6206;53.100;11.098;2022-07-29T05:09:47;13.40;99.90
12287;DHT22;6206;53.100;11.098;2022-07-29T05:12:14;16.30;99.90
12287;DHT22;6206;53.100;11.098;2022-07-29T05:14:41;13.50;99.90
12287;DHT22;6206;53.100;11.098;2022-07-29T05:17:07;13.60;99.90
12287;DHT22;6206;53.100;11.098;2022-07-29T05:19:35;16.20;99.90
12287;DHT22;6206;53.100;11.098;2022-07-29T05:22:02;13.60;99.90
12287;DHT22;6206;53.100;11.098;2022-07-29T05:24:29;13.70;99.90
12287;DHT22;6206;53.100;11.098;2022-07-29T05:26:55;13.80;99.90
12287;DHT22;6206;53.100;11.098;2022-07-29T05:29:22;13.80;99.90
12287;DHT22;6206;53.100;11.098;2022-07-29T05:31:49;16.80;99.90
12287;DHT22;6206;53.100;11.098;2022-07-29T05:34:17;15.40;99.90
12287;DHT22;6206;53.100;11.098;2022-07-29T05:36:45;16.90;99.90
12287;DHT22;6206;53.100;11.098;2022-07-29T05:39:12;14.30;99.90
12287;DHT22;6206;53.100;11.098;2022-07-29T05:41:39;14.20;99.90
12287;DHT22;6206;53.100;11.098;2022-07-29T05:44:05;14.20;99.90
12287;DHT22;6206;53.100;11.098;2022-07-29T05:46:32;14.40;99.90
12287;DHT22;6206;53.100;11.098;2022-07-29T05:48:58;14.30;99.90
12287;DHT22;6206;53.100;11.098;2022-07-29T05:51:26;14.40;99.90
12287;DHT22;6206;53.100;11.098;2022-07-29T05:53:54;14.50;99.90
12287;DHT22;6206;53.100;11.098;2022-07-29T05:56:20;16.50;99.90
12287;DHT22;6206;53.100;11.098;2022-07-29T05:58:47;14.60;99.90
12287;DHT22;6206;53.100;11.098;2022-07-29T06:01:14;16.50;99.90
12287;DHT22;6206;53.100;11.098;2022-07-29T06:03:41;14.80;99.90
12287;DHT22;6206;53.100;11.098;2022-07-29T06:06:08;14.80;99.90
12287;DHT22;6206;53.100;11.098;2022-07-29T06:08:35;14.90;99.90
12287;DHT22;6206;53.100;11.098;2022-07-29T06:11:04;14.90;99.90
12287;DHT22;6206;53.100;11.098;2022-07-29T06:13:31;14.90;99.90
12287;DHT22;6206;53.100;11.098;2022-07-29T06:15:57;14.90;99.90
12287;DHT22;6206;53.100;11.098;2022-07-29T06:18:24;15.00;99.90
12287;DHT22;6206;53.100;11.098;2022-07-29T06:20:51;15.10;99.90
12287;DHT22;6206;53.100;11.098;2022-07-29T06:23:18;15.10;99.90
12287;DHT22;6206;53.100;11.098;2022-07-29T06:25:45;15.20;99.90
12287;DHT22;6206;53.100;11.098;2022-07-29T06:28:13;15.40;99.90
12287;DHT22;6206;53.100;11.098;2022-07-29T06:30:40;19.40;99.90
12287;DHT22;6206;53.100;11.098;2022-07-29T06:33:06;15.70;99.90
12287;DHT22;6206;53.100;11.098;2022-07-29T06:35:33;16.00;99.90
12287;DHT22;6206;53.100;11.098;2022-07-29T06:38:01;15.80;99.90
12287;DHT22;6206;53.100;11.098;2022-07-29T06:40:28;19.10;99.90
12287;DHT22;6206;53.100;11.098;2022-07-29T06:43:13;15.80;99.90
12287;DHT22;6206;53.100;11.098;2022-07-29T06:45:40;15.80;99.90
12287;DHT22;6206;53.100;11.098;2022-07-29T06:48:08;16.00;99.90
12287;DHT22;6206;53.100;11.098;2022-07-29T06:50:35;16.20;99.90
12287;DHT22;6206;53.100;11.098;2022-07-29T06:53:01;16.30;99.90
12287;DHT22;6206;53.100;11.098;2022-07-29T06:55:28;19.00;99.90
12287;DHT22;6206;53.100;11.098;2022-07-29T06:57:55;19.70;99.90
12287;DHT22;6206;53.100;11.098;2022-07-29T07:00:23;16.60;99.90
12287;DHT22;6206;53.100;11.098;2022-07-29T07:02:49;20.60;99.90
12287;DHT22;6206;53.100;11.098;2022-07-29T07:05:16;20.50;99.90
12287;DHT22;6206;53.100;11.098;2022-07-29T07:07:42;17.70;99.90
12287;DHT22;6206;53.100;11.098;2022-07-29T07:10:09;20.70;99.90
12287;DHT22;6206;53.100;11.098;2022-07-29T07:12:35;17.00;99.90
12287;DHT22;6206;53.100;11.098;2022-07-29T07:15:02;19.70;99.90
12287;DHT22;6206;53.100;11.098;2022-07-29T07:17:30;17.30;99.90
12287;DHT22;6206;53.100;11.098;2022-07-29T07:19:57;17.30;99.90
12287;DHT22;6206;53.100;11.098;2022-07-29T07:22:24;17.40;99.90
12287;DHT22;6206;53.100;11.098;2022-07-29T07:24:50;21.50;99.90
12287;DHT22;6206;53.100;11.098;2022-07-29T07:27:17;20.40;99.90
12287;DHT22;6206;53.100;11.098;2022-07-29T07:29:43;21.30;99.90
12287;DHT22;6206;53.100;11.098;2022-07-29T07:32:10;20.60;99.90
12287;DHT22;6206;53.100;11.098;2022-07-29T07:34:39;21.40;99.90
12287;DHT22;6206;53.100;11.098;2022-07-29T07:37:06;17.70;99.90
12287;DHT22;6206;53.100;11.098;2022-07-29T07:39:33;18.40;99.90
12287;DHT22;6206;53.100;11.098;2022-07-29T07:42:00;20.30;99.90
12287;DHT22;6206;53.100;11.098;2022-07-29T07:44:27;20.90;99.90
12287;DHT22;6206;53.100;11.098;2022-07-29T07:46:53;17.90;99.90
12287;DHT22;6206;53.100;11.098;2022-07-29T07:49:20;21.90;99.90
12287;DHT22;6206;53.100;11.098;2022-07-29T07:51:48;19.40;99.90
12287;DHT22;6206;53.100;11.098;2022-07-29T07:54:14;20.10;99.90
12287;DHT22;6206;53.100;11.098;2022-07-29T07:56:41;19.80;99.90
12287;DHT22;6206;53.100;11.098;2022-07-29T07:59:08;21.40;99.90
12287;DHT22;6206;53.100;11.098;2022-07-29T08:01:34;20.50;99.90
12287;DHT22;6206;53.100;11.098;2022-07-29T08:04:01;19.20;99.90
12287;DHT22;6206;53.100;11.098;2022-07-29T08:06:28;21.20;99.90
12287;DHT22;6206;53.100;11.098;2022-07-29T08:08:55;20.30;99.90
12287;DHT22;6206;53.100;11.098;2022-07-29T08:11:22;22.80;99.90
12287;DHT22;6206;53.100;11.098;2022-07-29T08:13:49;19.30;99.90
12287;DHT22;6206;53.100;11.098;2022-07-29T08:16:15;21.70;99.90
12287;DHT22;6206;53.100;11.098;2022-07-29T08:18:43;21.60;99.90
12287;DHT22;6206;53.100;11.098;2022-07-29T08:21:10;20.60;99.90
12287;DHT22;6206;53.100;11.098;2022-07-29T08:23:37;19.80;99.90
12287;DHT22;6206;53.100;11.098;2022-07-29T08:26:06;21.30;99.90
12287;DHT22;6206;53.100;11.098;2022-07-29T08:28:36;22.20;99.90
12287;DHT22;6206;53.100;11.098;2022-07-29T08:31:03;20.50;99.90
12287;DHT22;6206;53.100;11.098;2022-07-29T08:33:30;23.80;99.90
12287;DHT22;6206;53.100;11.098;2022-07-29T08:35:56;21.90;99.90
12287;DHT22;6206;53.100;11.098;2022-07-29T08:38:23;21.00;99.90
12287;DHT22;6206;53.100;11.098;2022-07-29T08:40:51;21.70;99.90
12287;DHT22;6206;53.100;11.098;2022-07-29T08:43:19;20.50;99.90
12287;DHT22;6206;53.100;11.098;2022-07-29T08:45:48;22.30;99.90
12287;DHT22;6206;53.100;11.098;2022-07-29T08:48:18;22.90;99.90
12287;DHT22;6206;53.100;11.098;2022-07-29T08:50:46;21.70;99.90
12287;DHT22;6206;53.100;11.098;2022-07-29T08:53:14;22.00;99.90
12287;DHT22;6206;53.100;11.098;2022-07-29T08:55:42;21.50;99.90
12287;DHT22;6206;53.100;11.098;2022-07-29T08:58:09;22.80;99.90
12287;DHT22;6206;53.100;11.098;2022-07-29T09:00:41;20.80;99.90
12287;DHT22;6206;53.100;11.098;2022-07-29T09:03:09;20.60;99.90
12287;DHT22;6206;53.100;11.098;2022-07-29T09:05:38;20.70;99.90
12287;DHT22;6206;53.100;11.098;2022-07-29T09:08:08;21.50;99.90
12287;DHT22;6206;53.100;11.098;2022-07-29T09:10:36;23.20;99.90
12287;DHT22;6206;53.100;11.098;2022-07-29T09:13:03;21.20;99.90
12287;DHT22;6206;53.100;11.098;2022-07-29T09:15:30;23.90;99.90
12287;DHT22;6206;53.100;11.098;2022-07-29T09:17:58;21.60;99.90
12287;DHT22;6206;53.100;11.098;2022-07-29T09:20:26;23.40;99.90
12287;DHT22;6206;53.100;11.098;2022-07-29T09:23:12;23.80;99.90
12287;DHT22;6206;53.100;11.098;2022-07-29T09:25:40;21.50;99.90
12287;DHT22;6206;53.100;11.098;2022-07-29T09:28:07;21.60;99.90
12287;DHT22;6206;53.100;11.098;2022-07-29T09:30:34;21.60;99.90
12287;DHT22;6206;53.100;11.098;2022-07-29T09:33:02;21.70;99.90
12287;DHT22;6206;53.100;11.098;2022-07-29T09:35:29;22.00;99.90
12287;DHT22;6206;53.100;11.098;2022-07-29T09:37:56;22.00;99.90
12287;DHT22;6206;53.100;11.098;2022-07-29T09:40:23;22.00;99.90
12287;DHT22;6206;53.100;11.098;2022-07-29T09:42:50;22.00;99.90
12287;DHT22;6206;53.100;11.098;2022-07-29T09:45:28;22.10;99.90
12287;DHT22;6206;53.100;11.098;2022-07-29T09:47:54;22.30;99.90
12287;DHT22;6206;53.100;11.098;2022-07-29T09:50:36;22.70;99.90
12287;DHT22;6206;53.100;11.098;2022-07-29T09:53:03;23.50;99.90
12287;DHT22;6206;53.100;11.098;2022-07-29T09:55:29;25.20;99.90
12287;DHT22;6206;53.100;11.098;2022-07-29T09:58:15;26.40;99.90
12287;DHT22;6206;53.100;11.098;2022-07-29T10:00:42;23.20;99.90
12287;DHT22;6206;53.100;11.098;2022-07-29T10:03:09;23.30;99.90
12287;DHT22;6206;53.100;11.098;2022-07-29T10:05:37;23.30;99.90
12287;DHT22;6206;53.100;11.098;2022-07-29T10:08:05;23.50;99.90
12287;DHT22;6206;53.100;11.098;2022-07-29T10:10:34;23.50;99.90
12287;DHT22;6206;53.100;11.098;2022-07-29T10:13:03;23.50;99.90
12287;DHT22;6206;53.100;11.098;2022-07-29T10:15:32;23.90;99.90
12287;DHT22;6206;53.100;11.098;2022-07-29T10:18:02;23.60;99.90
12287;DHT22;6206;53.100;11.098;2022-07-29T10:20:30;23.80;99.90
12287;DHT22;6206;53.100;11.098;2022-07-29T10:22:58;23.80;99.90
12287;DHT22;6206;53.100;11.098;2022-07-29T10:25:25;23.70;99.90
12287;DHT22;6206;53.100;11.098;2022-07-29T10:27:53;26.10;99.90
12287;DHT22;6206;53.100;11.098;2022-07-29T10:30:21;23.90;99.90
12287;DHT22;6206;53.100;11.098;2022-07-29T10:36:01;24.20;99.90
12287;DHT22;6206;53.100;11.098;2022-07-29T10:38:52;24.40;99.90
12287;DHT22;6206;53.100;11.098;2022-07-29T10:41:36;25.70;99.90
12287;DHT22;6206;53.100;11.098;2022-07-29T10:44:12;24.50;99.90
12287;DHT22;6206;53.100;11.098;2022-07-29T10:46:40;27.00;99.90
12287;DHT22;6206;53.100;11.098;2022-07-29T10:49:08;25.60;99.90
12287;DHT22;6206;53.100;11.098;2022-07-29T10:51:59;26.90;99.90
12287;DHT22;6206;53.100;11.098;2022-07-29T10:54:47;24.50;99.90
12287;DHT22;6206;53.100;11.098;2022-07-29T10:57:21;25.10;99.90
12287;DHT22;6206;53.100;11.098;2022-07-29T10:59:50;24.80;99.90
12287;DHT22;6206;53.100;11.098;2022-07-29T11:02:43;25.00;99.90
12287;DHT22;6206;53.100;11.098;2022-07-29T11:05:11;25.20;99.90
12287;DHT22;6206;53.100;11.098;2022-07-29T11:07:39;25.40;99.90
12287;DHT22;6206;53.100;11.098;2022-07-29T11:10:24;25.50;99.90
12287;DHT22;6206;53.100;11.098;2022-07-29T11:12:51;25.40;99.90
12287;DHT22;6206;53.100;11.098;2022-07-29T11:15:20;25.20;99.90
12287;DHT22;6206;53.100;11.098;2022-07-29T11:18:06;25.50;99.90
12287;DHT22;6206;53.100;11.098;2022-07-29T11:20:35;25.30;99.90
12287;DHT22;6206;53.100;11.098;2022-07-29T11:23:18;25.30;99.90
12287;DHT22;6206;53.100;11.098;2022-07-29T11:26:13;25.30;99.90
12287;DHT22;6206;53.100;11.098;2022-07-29T11:28:50;25.40;99.90
12287;DHT22;6206;53.100;11.098;2022-07-29T11:31:20;25.80;99.90
12287;DHT22;6206;53.100;11.098;2022-07-29T11:34:05;25.80;99.90
12287;DHT22;6206;53.100;11.098;2022-07-29T11:39:42;25.80;99.90
12287;DHT22;6206;53.100;11.098;2022-07-29T11:42:42;25.80;99.90
12287;DHT22;6206;53.100;11.098;2022-07-29T11:45:11;25.50;99.90
12287;DHT22;6206;53.100;11.098;2022-07-29T11:47:40;25.60;99.90
12287;DHT22;6206;53.100;11.098;2022-07-29T11:50:09;25.40;99.90
12287;DHT22;6206;53.100;11.098;2022-07-29T11:52:37;25.50;99.90
12287;DHT22;6206;53.100;11.098;2022-07-29T11:55:10;27.00;99.90
12287;DHT22;6206;53.100;11.098;2022-07-29T11:57:38;27.50;99.90
12287;DHT22;6206;53.100;11.098;2022-07-29T12:00:21;25.80;99.90
12287;DHT22;6206;53.100;11.098;2022-07-29T12:02:48;26.20;99.90
12287;DHT22;6206;53.100;11.098;2022-07-29T12:05:16;26.30;99.90
12287;DHT22;6206;53.100;11.098;2022-07-29T12:07:43;26.90;99.50
12287;DHT22;6206;53.100;11.098;2022-07-29T12:10:10;26.40;97.00
12287;DHT22;6206;53.100;11.098;2022-07-29T12:12:37;27.10;97.50
12287;DHT22;6206;53.100;11.098;2022-07-29T12:15:17;26.70;95.30
12287;DHT22;6206;53.100;11.098;2022-07-29T12:17:46;26.70;95.10
12287;DHT22;6206;53.100;11.098;2022-07-29T12:20:14;26.80;94.80
12287;DHT22;6206;53.100;11.098;2022-07-29T12:22:48;26.80;93.60
12287;DHT22;6206;53.100;11.098;2022-07-29T12:25:14;27.10;95.40
12287;DHT22;6206;53.100;11.098;2022-07-29T12:27:42;27.30;96.10
12287;DHT22;6206;53.100;11.098;2022-07-29T12:30:11;27.30;95.10
12287;DHT22;6206;53.100;11.098;2022-07-29T12:32:41;26.90;94.60
12287;DHT22;6206;53.100;11.098;2022-07-29T12:35:09;27.10;93.80
12287;DHT22;6206;53.100;11.098;2022-07-29T12:37:40;26.80;93.80
12287;DHT22;6206;53.100;11.098;2022-07-29T12:40:08;26.70;94.10
12287;DHT22;6206;53.100;11.098;2022-07-29T12:42:36;26.80;95.30
12287;DHT22;6206;53.100;11.098;2022-07-29T12:45:03;26.90;93.80
12287;DHT22;6206;53.100;11.098;2022-07-29T12:47:30;26.90;93.60
12287;DHT22;6206;53.100;11.098;2022-07-29T12:50:12;27.20;93.80
12287;DHT22;6206;53.100;11.098;2022-07-29T12:52:44;26.90;93.60
12287;DHT22;6206;53.100;11.098;2022-07-29T12:55:11;27.40;93.90
12287;DHT22;6206;53.100;11.098;2022-07-29T12:57:45;27.20;93.30
12287;DHT22;6206;53.100;11.098;2022-07-29T13:00:14;27.30;92.00
12287;DHT22;6206;53.100;11.098;2022-07-29T13:02:42;27.50;92.00
12287;DHT22;6206;53.100;11.098;2022-07-29T13:05:11;27.60;92.30
12287;DHT22;6206;53.100;11.098;2022-07-29T13:07:38;27.50;92.10
12287;DHT22;6206;53.100;11.098;2022-07-29T13:10:13;27.70;91.90
12287;DHT22;6206;53.100;11.098;2022-07-29T13:13:02;27.40;91.10
12287;DHT22;6206;53.100;11.098;2022-07-29T13:15:30;27.30;92.40
12287;DHT22;6206;53.100;11.098;2022-07-29T13:17:57;27.20;91.30
12287;DHT22;6206;53.100;11.098;2022-07-29T13:20:26;27.10;91.10
12287;DHT22;6206;53.100;11.098;2022-07-29T13:22:55;27.90;92.00
12287;DHT22;6206;53.100;11.098;2022-07-29T13:25:25;27.00;90.70
12287;DHT22;6206;53.100;11.098;2022-07-29T13:27:52;27.00;91.00
12287;DHT22;6206;53.100;11.098;2022-07-29T13:30:21;27.10;91.20
12287;DHT22;6206;53.100;11.098;2022-07-29T13:32:48;27.00;90.10
12287;DHT22;6206;53.100;11.098;2022-07-29T13:35:15;27.20;90.90
12287;DHT22;6206;53.100;11.098;2022-07-29T13:37:44;27.10;90.80
12287;DHT22;6206;53.100;11.098;2022-07-29T13:40:12;27.00;90.30
12287;DHT22;6206;53.100;11.098;2022-07-29T13:42:39;27.00;91.10
12287;DHT22;6206;53.100;11.098;2022-07-29T13:45:07;26.80;90.60
12287;DHT22;6206;53.100;11.098;2022-07-29T13:47:34;26.90;90.40
12287;DHT22;6206;53.100;11.098;2022-07-29T13:50:02;27.00;89.90
12287;DHT22;6206;53.100;11.098;2022-07-29T13:52:29;26.90;88.90
12287;DHT22;6206;53.100;11.098;2022-07-29T13:54:57;26.80;89.40
12287;DHT22;6206;53.100;11.098;2022-07-29T13:57:24;27.10;88.40
12287;DHT22;6206;53.100;11.098;2022-07-29T13:59:50;27.30;87.90
12287;DHT22;6206;53.100;11.098;2022-07-29T14:02:17;27.70;87.30
12287;DHT22;6206;53.100;11.098;2022-07-29T14:04:44;28.10;85.00
12287;DHT22;6206;53.100;11.098;2022-07-29T14:07:10;28.00;83.60
12287;DHT22;6206;53.100;11.098;2022-07-29T14:09:38;27.80;82.50
12287;DHT22;6206;53.100;11.098;2022-07-29T14:12:07;27.70;83.60
12287;DHT22;6206;53.100;11.098;2022-07-29T14:14:34;27.80;84.40
12287;DHT22;6206;53.100;11.098;2022-07-29T14:17:02;28.10;84.10
12287;DHT22;6206;53.100;11.098;2022-07-29T14:19:31;27.60;83.80
12287;DHT22;6206;53.100;11.098;2022-07-29T14:22:01;27.70;85.10
12287;DHT22;6206;53.100;11.098;2022-07-29T14:24:28;28.50;84.10
12287;DHT22;6206;53.100;11.098;2022-07-29T14:26:54;29.50;85.40
12287;DHT22;6206;53.100;11.098;2022-07-29T14:29:22;28.00;82.30
12287;DHT22;6206;53.100;11.098;2022-07-29T14:31:49;28.20;82.10
12287;DHT22;6206;53.100;11.098;2022-07-29T14:34:15;27.90;81.30
12287;DHT22;6206;53.100;11.098;2022-07-29T14:36:42;27.90;81.00
12287;DHT22;6206;53.100;11.098;2022-07-29T14:39:09;27.80;79.70
12287;DHT22;6206;53.100;11.098;2022-07-29T14:41:36;27.80;82.50
12287;DHT22;6206;53.100;11.098;2022-07-29T14:44:03;28.80;81.50
12287;DHT22;6206;53.100;11.098;2022-07-29T14:46:31;27.70;80.20
12287;DHT22;6206;53.100;11.098;2022-07-29T14:48:58;27.80;79.10
12287;DHT22;6206;53.100;11.098;2022-07-29T14:51:25;27.80;78.40
12287;DHT22;6206;53.100;11.098;2022-07-29T14:53:51;27.90;78.80
12287;DHT22;6206;53.100;11.098;2022-07-29T14:56:18;28.10;79.30
12287;DHT22;6206;53.100;11.098;2022-07-29T14:58:45;28.60;77.60
12287;DHT22;6206;53.100;11.098;2022-07-29T15:01:11;28.60;75.40
12287;DHT22;6206;53.100;11.098;2022-07-29T15:03:39;28.50;76.80
12287;DHT22;6206;53.100;11.098;2022-07-29T15:06:06;28.30;74.70
12287;DHT22;6206;53.100;11.098;2022-07-29T15:08:32;28.20;77.70
12287;DHT22;6206;53.100;11.098;2022-07-29T15:10:59;28.20;75.70
12287;DHT22;6206;53.100;11.098;2022-07-29T15:13:26;28.40;76.20
12287;DHT22;6206;53.100;11.098;2022-07-29T15:15:52;30.20;75.40
12287;DHT22;6206;53.100;11.098;2022-07-29T15:18:21;30.90;73.60
12287;DHT22;6206;53.100;11.098;2022-07-29T15:20:48;31.10;71.40
12287;DHT22;6206;53.100;11.098;2022-07-29T15:23:15;32.20;74.30
12287;DHT22;6206;53.100;11.098;2022-07-29T15:25:41;31.20;70.40
12287;DHT22;6206;53.100;11.098;2022-07-29T15:28:08;30.40;68.60
12287;DHT22;6206;53.100;11.098;2022-07-29T15:30:34;31.80;69.80
12287;DHT22;6206;53.100;11.098;2022-07-29T15:33:06;30.00;69.20
12287;DHT22;6206;53.100;11.098;2022-07-29T15:35:33;30.70;69.00
12287;DHT22;6206;53.100;11.098;2022-07-29T15:38:01;30.50;67.50
12287;DHT22;6206;53.100;11.098;2022-07-29T15:40:27;31.90;66.50
12287;DHT22;6206;53.100;11.098;2022-07-29T15:42:54;32.70;66.80
12287;DHT22;6206;53.100;11.098;2022-07-29T15:45:21;35.10;69.00
12287;DHT22;6206;53.100;11.098;2022-07-29T15:47:48;31.90;65.60
12287;DHT22;6206;53.100;11.098;2022-07-29T15:50:14;31.90;63.70